sensor_id;sensor_type;location;lat;lon;timestamp;pressure;altitude;pressure_sealevel;temperature;humidity
56414;BME280;42318;48.452;19.526;2023-02-23T00:03:39;98333.06;;;20.61;56.37
56414;BME280;42318;48.452;19.526;2023-02-23T00:11:10;98340.03;;;20.47;56.88
56414;BME280;42318;48.452;19.526;2023-02-23T00:18:47;98345.09;;;20.70;56.37
56414;BME280;42318;48.452;19.526;2023-02-23T00:26:21;98346.72;;;20.71;56.01
56414;BME280;42318;48.452;19.526;2023-02-23T00:33:57;98341.31;;;20.76;56.08
56414;BME280;42318;48.452;19.526;2023-02-23T00:41:29;98334.84;;;20.87;55.48
56414;BME280;42318;48.452;19.526;2023-02-23T00:48:59;98326.81;;;20.65;55.93
56414;BME280;42318;48.452;19.526;2023-02-23T00:56:30;98336.38;;;20.73;56.10
56414;BME280;42318;48.452;19.526;2023-02-23T01:04:01;98330.03;;;20.57;56.31
56414;BME280;42318;48.452;19.526;2023-02-23T01:11:32;98333.56;;;20.53;56.21
56414;BME280;42318;48.452;19.526;2023-02-23T01:19:03;98319.16;;;20.57;55.83
56414;BME280;42318;48.452;19.526;2023-02-23T01:26:38;98330.88;;;20.63;55.85
56414;BME280;42318;48.452;19.526;2023-02-23T01:34:13;98335.84;;;20.76;55.32
56414;BME280;42318;48.452;19.526;2023-02-23T01:41:44;98327.69;;;20.76;55.10
56414;BME280;42318;48.452;19.526;2023-02-23T01:49:20;98320.84;;;20.68;55.62
56414;BME280;42318;48.452;19.526;2023-02-23T01:56:54;98310.47;;;20.60;55.81
56414;BME280;42318;48.452;19.526;2023-02-23T02:04:27;98311.78;;;20.53;56.04
56414;BME280;42318;48.452;19.526;2023-02-23T02:12:03;98319.25;;;20.78;55.10
56414;BME280;42318;48.452;19.526;2023-02-23T02:43:00;98320.34;;;20.77;55.11
56414;BME280;42318;48.452;19.526;2023-02-23T02:58:07;98321.25;;;20.45;55.53
56414;BME280;42318;48.452;19.526;2023-02-23T03:05:45;98331.94;;;20.57;55.51
56414;BME280;42318;48.452;19.526;2023-02-23T03:30:20;98342.56;;;20.58;54.99
56414;BME280;42318;48.452;19.526;2023-02-23T03:38:16;98338.41;;;20.46;55.44
56414;BME280;42318;48.452;19.526;2023-02-23T03:46:09;98345.22;;;20.48;55.93
56414;BME280;42318;48.452;19.526;2023-02-23T03:54:16;98349.81;;;20.43;55.81
56414;BME280;42318;48.452;19.526;2023-02-23T04:02:07;98348.75;;;20.44;55.75
56414;BME280;42318;48.452;19.526;2023-02-23T04:09:58;98350.44;;;20.55;55.31
56414;BME280;42318;48.452;19.526;2023-02-23T04:17:48;98348.00;;;20.58;54.99
56414;BME280;42318;48.452;19.526;2023-02-23T04:25:19;98349.59;;;20.49;55.48
56414;BME280;42318;48.452;19.526;2023-02-23T04:32:52;98341.41;;;20.49;55.39
56414;BME280;42318;48.452;19.526;2023-02-23T04:40:23;98341.75;;;20.58;54.83
56414;BME280;42318;48.452;19.526;2023-02-23T04:47:54;98346.63;;;20.56;54.92
56414;BME280;42318;48.452;19.526;2023-02-23T04:55:26;98343.31;;;20.49;54.78
56414;BME280;42318;48.452;19.526;2023-02-23T05:02:57;98350.69;;;20.53;54.95
56414;BME280;42318;48.452;19.526;2023-02-23T05:10:27;98348.56;;;20.60;54.46
56414;BME280;42318;48.452;19.526;2023-02-23T05:17:58;98344.56;;;20.73;53.81
56414;BME280;42318;48.452;19.526;2023-02-23T05:25:29;98360.53;;;20.59;54.35
56414;BME280;42318;48.452;19.526;2023-02-23T05:33:00;98352.66;;;20.63;54.16
56414;BME280;42318;48.452;19.526;2023-02-23T05:40:31;98362.81;;;20.78;53.56
56414;BME280;42318;48.452;19.526;2023-02-23T05:48:01;98365.38;;;20.52;54.37
56414;BME280;42318;48.452;19.526;2023-02-23T05:55:32;98364.56;;;20.52;54.11
56414;BME280;42318;48.452;19.526;2023-02-23T06:03:03;98365.16;;;20.59;54.11
56414;BME280;42318;48.452;19.526;2023-02-23T06:10:34;98375.16;;;20.48;54.24
56414;BME280;42318;48.452;19.526;2023-02-23T06:18:06;98389.03;;;20.47;54.34
56414;BME280;42318;48.452;19.526;2023-02-23T06:25:38;98388.78;;;20.48;54.11
56414;BME280;42318;48.452;19.526;2023-02-23T06:33:10;98398.56;;;20.49;54.05
56414;BME280;42318;48.452;19.526;2023-02-23T06:40:41;98404.34;;;20.58;53.67
56414;BME280;42318;48.452;19.526;2023-02-23T06:48:12;98410.53;;;20.48;54.03
56414;BME280;42318;48.452;19.526;2023-02-23T06:55:43;98421.13;;;20.45;54.31
56414;BME280;42318;48.452;19.526;2023-02-23T07:03:14;98410.22;;;20.40;54.77
56414;BME280;42318;48.452;19.526;2023-02-23T07:10:45;98423.81;;;20.40;54.53
56414;BME280;42318;48.452;19.526;2023-02-23T07:18:16;98417.84;;;20.43;54.49
56414;BME280;42318;48.452;19.526;2023-02-23T07:25:49;98420.06;;;20.46;54.30
56414;BME280;42318;48.452;19.526;2023-02-23T07:33:20;98412.28;;;20.64;53.45
56414;BME280;42318;48.452;19.526;2023-02-23T07:40:51;98420.06;;;20.46;54.56
56414;BME280;42318;48.452;19.526;2023-02-23T07:48:22;98421.66;;;20.42;54.79
56414;BME280;42318;48.452;19.526;2023-02-23T07:55:56;98420.84;;;20.41;55.34
56414;BME280;42318;48.452;19.526;2023-02-23T08:03:27;98422.75;;;20.41;55.41
56414;BME280;42318;48.452;19.526;2023-02-23T08:11:03;98428.75;;;20.43;55.76
56414;BME280;42318;48.452;19.526;2023-02-23T08:18:34;98432.03;;;20.45;55.50
56414;BME280;42318;48.452;19.526;2023-02-23T08:26:05;98446.97;;;20.42;55.75
56414;BME280;42318;48.452;19.526;2023-02-23T08:33:36;98442.09;;;20.44;55.90
56414;BME280;42318;48.452;19.526;2023-02-23T08:41:08;98440.19;;;20.45;55.65
56414;BME280;42318;48.452;19.526;2023-02-23T08:48:39;98442.66;;;20.46;55.64
56414;BME280;42318;48.452;19.526;2023-02-23T08:56:10;98444.28;;;20.47;55.64
56414;BME280;42318;48.452;19.526;2023-02-23T09:03:42;98439.38;;;20.44;55.71
56414;BME280;42318;48.452;19.526;2023-02-23T09:11:13;98440.75;;;20.47;55.60
56414;BME280;42318;48.452;19.526;2023-02-23T09:18:44;98435.31;;;20.47;55.60
56414;BME280;42318;48.452;19.526;2023-02-23T09:26:15;98437.75;;;20.48;55.89
56414;BME280;42318;48.452;19.526;2023-02-23T09:33:49;98440.47;;;20.48;55.87
56414;BME280;42318;48.452;19.526;2023-02-23T09:49:01;98444.50;;;20.78;56.04
56414;BME280;42318;48.452;19.526;2023-02-23T09:56:38;98450.22;;;20.76;56.14
56414;BME280;42318;48.452;19.526;2023-02-23T10:12:00;98438.72;;;20.69;55.71
56414;BME280;42318;48.452;19.526;2023-02-23T10:19:43;98437.34;;;20.66;55.37
56414;BME280;42318;48.452;19.526;2023-02-23T10:27:19;98439.59;;;20.75;55.51
56414;BME280;42318;48.452;19.526;2023-02-23T10:34:53;98431.66;;;20.68;55.26
56414;BME280;42318;48.452;19.526;2023-02-23T10:42:26;98431.38;;;20.69;55.48
56414;BME280;42318;48.452;19.526;2023-02-23T10:50:02;98427.25;;;20.62;55.17
56414;BME280;42318;48.452;19.526;2023-02-23T10:57:36;98417.69;;;20.59;55.14
56414;BME280;42318;48.452;19.526;2023-02-23T11:13:01;98402.53;;;20.74;54.93
56414;BME280;42318;48.452;19.526;2023-02-23T11:20:38;98401.66;;;20.63;55.50
56414;BME280;42318;48.452;19.526;2023-02-23T11:28:20;98395.63;;;20.56;55.94
56414;BME280;42318;48.452;19.526;2023-02-23T11:35:58;98385.78;;;20.50;56.08
56414;BME280;42318;48.452;19.526;2023-02-23T11:43:30;98376.50;;;20.46;56.13
56414;BME280;42318;48.452;19.526;2023-02-23T11:51:01;98369.94;;;20.42;56.09
56414;BME280;42318;48.452;19.526;2023-02-23T11:58:54;98372.94;;;20.40;56.28
56414;BME280;42318;48.452;19.526;2023-02-23T12:06:37;98359.50;;;20.33;56.16
56414;BME280;42318;48.452;19.526;2023-02-23T12:14:38;98348.09;;;20.36;55.88
56414;BME280;42318;48.452;19.526;2023-02-23T12:22:13;98339.91;;;20.36;55.92
56414;BME280;42318;48.452;19.526;2023-02-23T12:45:00;98324.94;;;20.34;55.80
56414;BME280;42318;48.452;19.526;2023-02-23T12:52:36;98314.84;;;20.29;55.84
56414;BME280;42318;48.452;19.526;2023-02-23T13:16:03;98310.72;;;20.22;56.04
56414;BME280;42318;48.452;19.526;2023-02-23T13:23:41;98308.50;;;20.19;56.78
56414;BME280;42318;48.452;19.526;2023-02-23T13:31:25;98308.53;;;20.24;56.76
56414;BME280;42318;48.452;19.526;2023-02-23T13:47:31;98304.19;;;20.23;56.48
56414;BME280;42318;48.452;19.526;2023-02-23T14:02:55;98287.59;;;20.24;56.53
56414;BME280;42318;48.452;19.526;2023-02-23T14:10:28;98286.53;;;20.25;56.46
56414;BME280;42318;48.452;19.526;2023-02-23T14:33:59;98271.28;;;20.24;56.85
56414;BME280;42318;48.452;19.526;2023-02-23T14:49:16;98268.28;;;20.26;56.46
56414;BME280;42318;48.452;19.526;2023-02-23T14:56:51;98257.16;;;20.27;56.28
56414;BME280;42318;48.452;19.526;2023-02-23T15:04:24;98252.50;;;20.23;56.48
56414;BME280;42318;48.452;19.526;2023-02-23T15:11:58;98255.78;;;20.25;56.65
56414;BME280;42318;48.452;19.526;2023-02-23T15:19:33;98247.34;;;20.26;56.51
56414;BME280;42318;48.452;19.526;2023-02-23T15:27:04;98235.66;;;20.26;56.54
56414;BME280;42318;48.452;19.526;2023-02-23T15:34:35;98234.56;;;20.27;56.46
56414;BME280;42318;48.452;19.526;2023-02-23T15:42:12;98235.38;;;20.27;56.36
56414;BME280;42318;48.452;19.526;2023-02-23T15:49:44;98238.09;;;20.27;56.55
56414;BME280;42318;48.452;19.526;2023-02-23T15:57:29;98238.09;;;20.27;56.66
56414;BME280;42318;48.452;19.526;2023-02-23T16:05:21;98235.38;;;20.27;56.64
56414;BME280;42318;48.452;19.526;2023-02-23T16:12:52;98222.88;;;20.26;56.35
56414;BME280;42318;48.452;19.526;2023-02-23T16:28:11;98237.84;;;20.29;56.57
56414;BME280;42318;48.452;19.526;2023-02-23T16:35:47;98238.66;;;20.29;56.45
56414;BME280;42318;48.452;19.526;2023-02-23T16:43:19;98247.91;;;20.28;56.36
56414;BME280;42318;48.452;19.526;2023-02-23T16:50:49;98253.34;;;20.28;56.36
56414;BME280;42318;48.452;19.526;2023-02-23T16:58:23;98250.63;;;20.28;56.30
56414;BME280;42318;48.452;19.526;2023-02-23T17:05:55;98256.06;;;20.28;56.62
56414;BME280;42318;48.452;19.526;2023-02-23T17:13:27;98256.88;;;20.29;56.45
56414;BME280;42318;48.452;19.526;2023-02-23T17:21:00;98261.25;;;20.30;56.40
56414;BME280;42318;48.452;19.526;2023-02-23T17:28:31;98253.34;;;20.28;56.08
56414;BME280;42318;48.452;19.526;2023-02-23T17:36:05;98246.53;;;20.26;56.24
56414;BME280;42318;48.452;19.526;2023-02-23T17:43:36;98251.44;;;20.29;56.04
56414;BME280;42318;48.452;19.526;2023-02-23T17:51:12;98242.47;;;20.28;56.04
56414;BME280;42318;48.452;19.526;2023-02-23T17:58:46;98252.25;;;20.29;55.99
56414;BME280;42318;48.452;19.526;2023-02-23T18:06:17;98230.22;;;20.26;56.17
56414;BME280;42318;48.452;19.526;2023-02-23T18:13:49;98243.53;;;20.27;56.17
56414;BME280;42318;48.452;19.526;2023-02-23T18:21:23;98235.38;;;20.27;56.31
56414;BME280;42318;48.452;19.526;2023-02-23T18:28:53;98231.56;;;20.28;56.10
56414;BME280;42318;48.452;19.526;2023-02-23T18:36:29;98224.50;;;20.27;55.95
56414;BME280;42318;48.452;19.526;2023-02-23T18:44:03;98217.41;;;20.26;56.03
56414;BME280;42318;48.452;19.526;2023-02-23T18:51:34;98209.78;;;20.23;55.59
56414;BME280;42318;48.452;19.526;2023-02-23T18:59:05;98211.44;;;20.24;55.73
56414;BME280;42318;48.452;19.526;2023-02-23T19:06:36;98207.06;;;20.23;55.78
56414;BME280;42318;48.452;19.526;2023-02-23T19:14:15;98216.88;;;20.24;55.60
56414;BME280;42318;48.452;19.526;2023-02-23T19:21:47;98214.41;;;20.23;55.69
56414;BME280;42318;48.452;19.526;2023-02-23T19:29:18;98220.41;;;20.25;56.03
56414;BME280;42318;48.452;19.526;2023-02-23T19:36:49;98221.19;;;20.20;55.87
56414;BME280;42318;48.452;19.526;2023-02-23T19:44:21;98220.66;;;20.23;56.16
56414;BME280;42318;48.452;19.526;2023-02-23T19:51:52;98221.22;;;20.25;56.36
56414;BME280;42318;48.452;19.526;2023-02-23T19:59:23;98219.59;;;20.24;56.31
56414;BME280;42318;48.452;19.526;2023-02-23T20:06:54;98220.13;;;20.26;56.46
56414;BME280;42318;48.452;19.526;2023-02-23T20:14:25;98217.41;;;20.26;56.60
56414;BME280;42318;48.452;19.526;2023-02-23T20:21:56;98210.06;;;20.27;56.69
56414;BME280;42318;48.452;19.526;2023-02-23T20:29:27;98203.81;;;20.26;56.51
56414;BME280;42318;48.452;19.526;2023-02-23T20:36:58;98184.22;;;20.24;56.76
56414;BME280;42318;48.452;19.526;2023-02-23T20:44:28;98183.41;;;20.24;56.62
56414;BME280;42318;48.452;19.526;2023-02-23T20:52:00;98182.31;;;20.25;56.84
56414;BME280;42318;48.452;19.526;2023-02-23T20:59:33;98172.25;;;20.25;56.99
56414;BME280;42318;48.452;19.526;2023-02-23T21:07:05;98167.09;;;20.29;58.54
56414;BME280;42318;48.452;19.526;2023-02-23T21:14:36;98161.94;;;20.27;58.67
56414;BME280;42318;48.452;19.526;2023-02-23T21:22:07;98155.94;;;20.25;58.32
56414;BME280;42318;48.452;19.526;2023-02-23T21:29:39;98141.50;;;20.25;57.83
56414;BME280;42318;48.452;19.526;2023-02-23T21:37:10;98148.59;;;20.26;57.48
56414;BME280;42318;48.452;19.526;2023-02-23T21:44:41;98140.13;;;20.22;57.50
56414;BME280;42318;48.452;19.526;2023-02-23T21:52:15;98135.81;;;20.26;57.38
56414;BME280;42318;48.452;19.526;2023-02-23T21:59:46;98135.81;;;20.26;57.25
56414;BME280;42318;48.452;19.526;2023-02-23T22:07:17;98142.34;;;20.25;57.10
56414;BME280;42318;48.452;19.526;2023-02-23T22:14:47;98120.84;;;20.24;56.90
56414;BME280;42318;48.452;19.526;2023-02-23T22:22:18;98120.56;;;20.25;56.92
56414;BME280;42318;48.452;19.526;2023-02-23T22:29:50;98112.41;;;20.25;56.75
56414;BME280;42318;48.452;19.526;2023-02-23T22:37:21;98110.78;;;20.29;56.47
56414;BME280;42318;48.452;19.526;2023-02-23T22:45:00;98111.84;;;20.23;56.47
56414;BME280;42318;48.452;19.526;2023-02-23T22:52:31;98112.66;;;20.24;56.33
56414;BME280;42318;48.452;19.526;2023-02-23T23:00:07;98099.34;;;20.27;56.11
56414;BME280;42318;48.452;19.526;2023-02-23T23:07:41;98096.34;;;20.24;56.21
56414;BME280;42318;48.452;19.526;2023-02-23T23:15:15;98087.63;;;20.22;56.18
56414;BME280;42318;48.452;19.526;2023-02-23T23:22:48;98077.03;;;20.25;56.02
56414;BME280;42318;48.452;19.526;2023-02-23T23:30:19;98086.28;;;20.24;56.04
56414;BME280;42318;48.452;19.526;2023-02-23T23:37:50;98077.03;;;20.25;55.95
56414;BME280;42318;48.452;19.526;2023-02-23T23:45:21;98060.72;;;20.25;56.00
56414;BME280;42318;48.452;19.526;2023-02-23T23:52:55;98056.91;;;20.26;55.73
